createdAt,value
2023-04-03T00:00:58.397Z,3.57
2023-04-03T00:03:25.772Z,3.56
2023-04-03T00:05:53.151Z,3.46
2023-04-03T00:08:20.769Z,3.45
2023-04-03T00:10:49.143Z,3.41
2023-04-03T00:13:17.329Z,3.35
2023-04-03T00:15:45.770Z,3.24
2023-04-03T00:18:13.189Z,3.15
2023-04-03T00:20:41.015Z,3.27
2023-04-03T00:23:08.340Z,3.17
2023-04-03T00:25:35.835Z,3.18
2023-04-03T00:28:03.883Z,3.11
2023-04-03T00:30:31.275Z,3.22
2023-04-03T00:32:58.885Z,3.18
2023-04-03T00:35:26.509Z,3.17
2023-04-03T00:37:56.229Z,3.16
2023-04-03T00:40:26.524Z,3.16
2023-04-03T00:42:58.912Z,3.15
2023-04-03T00:45:34.272Z,3.14
2023-04-03T00:48:06.804Z,3.08
2023-04-03T00:50:39.375Z,3.07
2023-04-03T00:53:10.916Z,3.02
2023-04-03T00:55:39.971Z,2.94
2023-04-03T00:58:08.366Z,2.85
2023-04-03T01:00:39.361Z,2.81
2023-04-03T01:03:06.891Z,2.77
2023-04-03T01:05:34.036Z,2.82
2023-04-03T01:08:01.740Z,2.76
2023-04-03T01:10:29.189Z,2.67
2023-04-03T01:12:56.611Z,2.66
2023-04-03T01:15:31.267Z,2.52
2023-04-03T01:17:59.589Z,2.51
2023-04-03T01:20:39.491Z,2.66
2023-04-03T01:23:34.275Z,2.69
2023-04-03T01:26:01.632Z,2.55
2023-04-03T01:28:33.720Z,2.57
2023-04-03T01:31:21.482Z,2.66
2023-04-03T01:33:49.234Z,2.65
2023-04-03T01:36:25.559Z,2.54
2023-04-03T01:38:54.255Z,2.51
2023-04-03T01:41:22.202Z,2.53
2023-04-03T01:43:50.472Z,2.42
2023-04-03T01:46:18.260Z,2.43
2023-04-03T01:48:45.404Z,2.39
2023-04-03T01:51:12.821Z,2.34
2023-04-03T01:53:39.880Z,2.30
2023-04-03T01:56:07.488Z,2.36
2023-04-03T01:58:35.005Z,2.25
2023-04-03T02:01:02.781Z,2.25
2023-04-03T02:03:30.773Z,2.19
2023-04-03T02:05:58.914Z,2.11
2023-04-03T02:08:26.403Z,2.17
2023-04-03T02:10:53.873Z,2.11
2023-04-03T02:13:21.447Z,2.08
2023-04-03T02:15:48.832Z,2.04
2023-04-03T02:18:16.497Z,2.01
2023-04-03T02:20:43.902Z,1.90
2023-04-03T02:23:11.578Z,1.89
2023-04-03T02:25:38.987Z,1.82
2023-04-03T02:28:07.073Z,1.75
2023-04-03T02:30:35.032Z,1.71
2023-04-03T02:33:02.644Z,1.53
2023-04-03T02:35:30.101Z,1.44
2023-04-03T02:37:57.167Z,1.46
2023-04-03T02:40:24.524Z,1.44
2023-04-03T02:42:51.919Z,1.48
2023-04-03T02:45:19.311Z,1.55
2023-04-03T02:47:46.326Z,1.54
2023-04-03T02:50:13.743Z,1.60
2023-04-03T02:52:41.140Z,1.46
2023-04-03T02:55:08.664Z,1.47
2023-04-03T02:57:36.461Z,1.48
2023-04-03T03:00:04.288Z,1.48
2023-04-03T03:02:31.795Z,1.54
2023-04-03T03:04:59.228Z,1.57
2023-04-03T03:07:27.008Z,1.57
2023-04-03T03:09:54.020Z,1.49
2023-04-03T03:12:22.816Z,1.50
2023-04-03T03:14:50.683Z,1.57
2023-04-03T03:17:18.260Z,1.54
2023-04-03T03:19:46.698Z,1.51
2023-04-03T03:22:13.720Z,1.51
2023-04-03T03:24:40.785Z,1.47
2023-04-03T03:27:07.870Z,1.51
2023-04-03T03:29:35.047Z,1.53
2023-04-03T03:32:02.081Z,1.58
2023-04-03T03:34:29.012Z,1.64
2023-04-03T03:36:56.514Z,1.59
2023-04-03T03:39:23.885Z,1.60
2023-04-03T03:41:50.935Z,1.58
2023-04-03T03:44:17.932Z,1.53
2023-04-03T03:46:44.905Z,1.52
2023-04-03T03:49:12.557Z,1.59
2023-04-03T03:51:41.178Z,1.53
2023-04-03T03:54:09.005Z,1.49
2023-04-03T03:56:36.563Z,1.45
2023-04-03T03:59:03.685Z,1.49
2023-04-03T04:01:31.031Z,1.56
2023-04-03T04:03:58.728Z,1.42
2023-04-03T04:06:26.161Z,1.38
2023-04-03T04:08:53.622Z,1.42
2023-04-03T04:13:51.449Z,1.33
2023-04-03T04:16:18.936Z,1.34
2023-04-03T04:18:46.423Z,1.28
2023-04-03T04:21:13.768Z,1.27
2023-04-03T04:23:41.140Z,1.19
2023-04-03T04:26:08.502Z,1.17
2023-04-03T04:28:35.922Z,1.21
2023-04-03T04:31:04.041Z,1.19
2023-04-03T04:33:31.690Z,1.19
2023-04-03T04:35:59.090Z,1.14
2023-04-03T04:38:26.133Z,1.09
2023-04-03T04:40:53.501Z,1.10
2023-04-03T04:43:20.891Z,1.06
2023-04-03T04:45:48.334Z,1.13
2023-04-03T04:48:15.572Z,1.11
2023-04-03T04:50:42.902Z,1.13
2023-04-03T04:53:10.287Z,1.16
2023-04-03T04:55:37.909Z,1.13
2023-04-03T04:58:05.645Z,1.11
2023-04-03T05:00:32.640Z,1.16
2023-04-03T05:02:59.979Z,1.17
2023-04-03T05:05:27.350Z,1.17
2023-04-03T05:07:54.639Z,1.19
2023-04-03T05:10:21.995Z,1.25
2023-04-03T05:12:49.346Z,1.34
2023-04-03T05:15:16.425Z,1.33
2023-04-03T05:17:43.371Z,1.32
2023-04-03T05:20:11.206Z,1.46
2023-04-03T05:22:38.443Z,1.48
2023-04-03T05:25:06.803Z,1.53
2023-04-03T05:27:34.058Z,1.57
2023-04-03T05:30:01.394Z,1.60
2023-04-03T05:32:28.684Z,1.62
2023-04-03T05:34:55.888Z,1.66
2023-04-03T05:37:22.814Z,1.74
2023-04-03T05:39:50.110Z,1.75
2023-04-03T05:42:17.874Z,1.78
2023-04-03T05:44:45.641Z,1.81
2023-04-03T05:47:12.578Z,1.81
2023-04-03T05:49:41.959Z,1.85
2023-04-03T05:52:34.840Z,1.95
2023-04-03T05:55:02.489Z,2.00
2023-04-03T05:57:29.840Z,2.02
2023-04-03T05:59:57.236Z,2.08
2023-04-03T06:02:26.165Z,2.12
2023-04-03T06:04:53.775Z,2.13
2023-04-03T06:07:28.109Z,2.19
2023-04-03T06:09:56.951Z,2.22
2023-04-03T06:12:24.454Z,2.30
2023-04-03T06:14:52.066Z,2.40
2023-04-03T06:17:19.552Z,2.45
2023-04-03T06:19:47.040Z,2.53
2023-04-03T06:22:14.570Z,2.64
2023-04-03T06:24:41.920Z,2.73
2023-04-03T06:27:10.621Z,2.79
2023-04-03T06:29:38.208Z,2.84
2023-04-03T06:32:05.616Z,2.91
2023-04-03T06:34:33.205Z,3.03
2023-04-03T06:37:00.176Z,3.11
2023-04-03T06:39:27.159Z,3.12
2023-04-03T06:41:54.514Z,3.20
2023-04-03T06:44:21.838Z,3.27
2023-04-03T06:46:49.658Z,3.30
2023-04-03T06:49:16.673Z,3.39
2023-04-03T06:51:44.022Z,3.41
2023-04-03T06:54:11.512Z,3.40
2023-04-03T06:56:38.884Z,3.41
2023-04-03T06:59:06.220Z,3.42
2023-04-03T07:01:33.591Z,3.47
2023-04-03T07:04:01.288Z,3.48
2023-04-03T07:06:28.950Z,3.63
2023-04-03T07:08:56.548Z,3.76
2023-04-03T07:11:23.853Z,3.82
2023-04-03T07:13:51.524Z,4.00
2023-04-03T07:16:18.503Z,3.98
2023-04-03T07:18:46.686Z,4.05
2023-04-03T07:21:14.320Z,4.16
2023-04-03T07:23:41.449Z,4.33
2023-04-03T07:26:09.154Z,4.27
2023-04-03T07:28:37.739Z,4.31
2023-04-03T07:31:09.824Z,4.42
2023-04-03T07:33:38.268Z,4.58
2023-04-03T07:36:08.011Z,4.66
2023-04-03T07:38:36.580Z,4.69
2023-04-03T07:41:05.145Z,4.80
2023-04-03T07:43:32.512Z,4.79
2023-04-03T07:45:59.948Z,4.82
2023-04-03T07:48:27.777Z,4.86
2023-04-03T07:50:54.881Z,4.99
2023-04-03T07:53:22.449Z,5.00
2023-04-03T07:55:50.226Z,5.10
2023-04-03T07:58:19.380Z,5.17
2023-04-03T08:00:47.012Z,5.23
2023-04-03T08:03:14.832Z,5.35
2023-04-03T08:05:44.441Z,5.44
2023-04-03T08:08:13.738Z,5.61
2023-04-03T08:10:41.274Z,5.70
2023-04-03T08:13:09.005Z,5.83
2023-04-03T08:15:37.000Z,5.84
2023-04-03T08:18:04.748Z,5.91
2023-04-03T08:20:31.885Z,6.06
2023-04-03T08:22:58.955Z,6.15
2023-04-03T08:25:26.591Z,6.30
2023-04-03T08:27:53.969Z,6.16
2023-04-03T08:30:21.415Z,6.30
2023-04-03T08:32:48.540Z,6.42
2023-04-03T08:35:15.602Z,6.42
2023-04-03T08:37:42.821Z,6.65
2023-04-03T08:40:17.048Z,6.68
2023-04-03T08:43:11.612Z,6.94
2023-04-03T08:45:56.563Z,7.02
2023-04-03T08:48:36.707Z,6.98
2023-04-03T08:51:18.679Z,7.09
2023-04-03T08:54:01.270Z,7.21
2023-04-03T08:56:28.858Z,7.03
2023-04-03T08:59:05.459Z,7.18
2023-04-03T09:01:39.236Z,7.17
2023-04-03T09:04:16.094Z,7.35
2023-04-03T09:06:59.857Z,7.28
2023-04-03T09:09:42.994Z,7.39
2023-04-03T09:12:40.712Z,7.53
2023-04-03T09:15:31.261Z,7.80
2023-04-03T09:18:24.103Z,7.87
2023-04-03T09:21:09.211Z,7.76
2023-04-03T09:23:51.595Z,7.85
2023-04-03T09:26:30.932Z,7.39
2023-04-03T09:29:07.726Z,7.72
2023-04-03T09:31:42.326Z,8.00
2023-04-03T09:34:27.433Z,8.34
2023-04-03T09:37:06.728Z,8.27
2023-04-03T09:39:52.306Z,8.51
2023-04-03T09:42:25.835Z,8.45
2023-04-03T09:45:02.082Z,8.07
2023-04-03T09:47:37.417Z,7.72
2023-04-03T09:50:24.320Z,8.38
2023-04-03T09:52:53.058Z,9.08
2023-04-03T09:55:28.266Z,8.85
2023-04-03T09:58:03.884Z,7.84
2023-04-03T10:00:40.252Z,8.20
2023-04-03T10:03:40.284Z,8.87
2023-04-03T10:06:25.036Z,8.58
2023-04-03T10:09:05.450Z,8.21
2023-04-03T10:11:32.971Z,8.90
2023-04-03T10:14:02.603Z,8.51
2023-04-03T10:16:51.169Z,8.23
2023-04-03T10:19:46.165Z,8.33
2023-04-03T10:22:43.524Z,9.47
2023-04-03T10:25:24.451Z,8.78
2023-04-03T10:28:04.455Z,8.39
2023-04-03T10:31:02.157Z,8.63
2023-04-03T10:34:09.368Z,8.73
2023-04-03T10:36:44.763Z,9.15
2023-04-03T10:39:59.075Z,9.17
2023-04-03T10:42:37.762Z,9.08
2023-04-03T10:45:31.350Z,9.48
2023-04-03T10:48:16.614Z,8.88
2023-04-03T10:50:53.844Z,8.90
2023-04-03T10:54:10.225Z,9.04
2023-04-03T10:56:53.105Z,9.16
2023-04-03T10:59:49.515Z,9.87
2023-04-03T11:02:43.379Z,9.35
2023-04-03T11:05:32.055Z,9.73
2023-04-03T11:08:06.244Z,9.83
2023-04-03T11:10:46.386Z,10.53
2023-04-03T11:13:34.030Z,10.72
2023-04-03T11:16:01.461Z,10.22
2023-04-03T11:18:54.542Z,10.13
2023-04-03T11:21:57.236Z,9.63
2023-04-03T11:24:28.907Z,9.80
2023-04-03T11:26:57.743Z,10.60
2023-04-03T11:29:35.422Z,11.01
2023-04-03T11:32:12.033Z,10.66
2023-04-03T11:34:44.491Z,10.21
2023-04-03T11:37:23.752Z,9.69
2023-04-03T11:40:27.964Z,11.25
2023-04-03T11:43:00.756Z,12.02
2023-04-03T11:45:46.675Z,11.72
2023-04-03T11:48:24.813Z,10.80
2023-04-03T11:50:53.310Z,10.35
2023-04-03T11:53:40.341Z,10.06
2023-04-03T11:56:31.791Z,10.14
2023-04-03T11:59:14.712Z,10.01
2023-04-03T12:01:51.963Z,9.97
2023-04-03T12:04:23.229Z,10.17
2023-04-03T12:06:54.164Z,9.83
2023-04-03T12:09:31.951Z,10.21
2023-04-03T12:12:08.705Z,10.01
2023-04-03T12:14:36.760Z,10.54
2023-04-03T12:17:24.830Z,9.88
2023-04-03T12:19:53.045Z,9.48
2023-04-03T12:22:22.184Z,9.60
2023-04-03T12:24:54.125Z,10.74
2023-04-03T12:27:26.286Z,10.51
2023-04-03T12:30:06.944Z,11.12
2023-04-03T12:33:12.565Z,11.41
2023-04-03T12:36:12.394Z,10.76
2023-04-03T12:39:14.368Z,10.07
2023-04-03T12:42:02.063Z,10.24
2023-04-03T12:44:32.419Z,9.85
2023-04-03T12:47:17.820Z,10.39
2023-04-03T12:49:46.168Z,10.29
2023-04-03T12:52:43.079Z,11.53
2023-04-03T12:55:18.871Z,11.97
2023-04-03T12:57:46.745Z,10.88
2023-04-03T13:00:34.400Z,10.68
2023-04-03T13:03:05.142Z,10.67
2023-04-03T13:05:35.927Z,11.44
2023-04-03T13:08:11.457Z,10.97
2023-04-03T13:10:57.402Z,10.96
2023-04-03T13:13:24.747Z,12.24
2023-04-03T13:15:53.771Z,11.30
2023-04-03T13:18:34.588Z,10.77
2023-04-03T13:21:13.500Z,10.67
2023-04-03T13:23:46.331Z,10.78
2023-04-03T13:26:17.335Z,10.37
2023-04-03T13:28:46.487Z,10.28
2023-04-03T13:31:15.039Z,10.34
2023-04-03T13:34:14.591Z,10.06
2023-04-03T13:37:06.146Z,10.46
2023-04-03T13:39:39.375Z,11.89
2023-04-03T13:42:30.928Z,10.63
2023-04-03T13:45:27.286Z,10.69
2023-04-03T13:48:23.243Z,10.69
2023-04-03T13:51:06.084Z,10.34
2023-04-03T13:53:35.782Z,10.34
2023-04-03T13:56:11.667Z,10.09
2023-04-03T13:58:39.982Z,9.81
2023-04-03T14:01:24.220Z,10.21
2023-04-03T14:03:59.725Z,10.15
2023-04-03T14:06:27.186Z,10.08
2023-04-03T14:08:54.382Z,9.72
2023-04-03T14:11:31.385Z,9.84
2023-04-03T14:14:06.443Z,9.94
2023-04-03T14:16:39.189Z,9.46
2023-04-03T14:19:07.326Z,9.66
2023-04-03T14:21:34.819Z,11.04
2023-04-03T14:24:02.568Z,10.59
2023-04-03T14:26:31.426Z,10.66
2023-04-03T14:28:59.665Z,10.99
2023-04-03T14:32:32.146Z,11.69
2023-04-03T14:34:59.785Z,12.15
2023-04-03T14:37:31.713Z,12.29
2023-04-03T14:40:01.388Z,12.06
2023-04-03T14:42:37.850Z,12.00
2023-04-03T14:45:09.399Z,12.47
2023-04-03T14:47:43.958Z,12.54
2023-04-03T14:50:22.134Z,11.48
2023-04-03T14:52:52.406Z,11.15
2023-04-03T14:55:23.388Z,10.65
2023-04-03T14:59:06.256Z,10.79
2023-04-03T15:01:33.818Z,11.85
2023-04-03T15:04:01.238Z,11.59
2023-04-03T15:06:28.852Z,11.68
2023-04-03T15:09:20.004Z,11.99
2023-04-03T15:12:00.609Z,12.62
2023-04-03T15:14:36.280Z,12.04
2023-04-03T15:17:07.224Z,12.87
2023-04-03T15:19:38.875Z,12.44
2023-04-03T15:22:06.452Z,12.66
2023-04-03T15:24:34.002Z,11.38
2023-04-03T15:27:02.188Z,11.21
2023-04-03T15:29:29.608Z,11.21
2023-04-03T15:31:57.573Z,12.45
2023-04-03T15:34:25.105Z,12.34
2023-04-03T15:36:53.799Z,12.92
2023-04-03T15:39:21.935Z,12.51
2023-04-03T15:41:49.569Z,12.30
2023-04-03T15:44:20.127Z,12.05
2023-04-03T15:46:49.792Z,11.97
2023-04-03T15:49:21.233Z,12.38
2023-04-03T15:51:48.685Z,12.85
2023-04-03T15:54:16.504Z,12.45
2023-04-03T15:56:43.900Z,12.39
2023-04-03T15:59:11.996Z,11.28
2023-04-03T16:01:40.126Z,11.34
2023-04-03T16:04:09.914Z,12.55
2023-04-03T16:06:38.117Z,12.51
2023-04-03T16:09:06.069Z,12.04
2023-04-03T16:11:33.450Z,12.05
2023-04-03T16:14:00.993Z,12.06
2023-04-03T16:16:28.446Z,11.94
2023-04-03T16:18:56.969Z,12.06
2023-04-03T16:21:24.506Z,11.65
2023-04-03T16:23:51.949Z,11.95
2023-04-03T16:26:19.339Z,11.62
2023-04-03T16:28:46.674Z,11.65
2023-04-03T16:31:14.219Z,11.35
2023-04-03T16:33:41.639Z,11.49
2023-04-03T16:36:09.090Z,11.41
2023-04-03T16:38:37.144Z,11.14
2023-04-03T16:41:05.683Z,11.53
2023-04-03T16:43:34.299Z,11.46
2023-04-03T16:46:03.305Z,11.45
2023-04-03T16:48:31.927Z,11.10
2023-04-03T16:51:00.429Z,11.05
2023-04-03T16:53:28.401Z,11.11
2023-04-03T16:55:57.905Z,11.22
2023-04-03T16:58:25.526Z,11.11
2023-04-03T17:00:54.860Z,11.20
2023-04-03T17:03:24.610Z,10.61
2023-04-03T17:05:52.229Z,10.54
2023-04-03T17:08:20.977Z,10.27
2023-04-03T17:10:50.201Z,10.43
2023-04-03T17:13:18.396Z,10.27
2023-04-03T17:15:46.130Z,10.03
2023-04-03T17:18:13.760Z,9.66
2023-04-03T17:20:41.268Z,9.61
2023-04-03T17:23:08.668Z,9.56
2023-04-03T17:25:36.631Z,9.35
2023-04-03T17:28:04.116Z,9.11
2023-04-03T17:30:31.608Z,9.11
2023-04-03T17:32:59.120Z,8.69
2023-04-03T17:35:26.550Z,8.70
2023-04-03T17:37:54.094Z,8.50
2023-04-03T17:40:21.416Z,8.27
2023-04-03T17:42:48.878Z,8.09
2023-04-03T17:45:16.356Z,7.83
2023-04-03T17:47:43.644Z,7.79
2023-04-03T17:50:11.612Z,7.75
2023-04-03T17:52:39.389Z,7.54
2023-04-03T17:55:07.022Z,7.46
2023-04-03T17:57:34.544Z,7.47
2023-04-03T18:00:02.050Z,7.31
2023-04-03T18:02:30.214Z,7.14
2023-04-03T18:04:57.654Z,7.11
2023-04-03T18:07:25.299Z,7.06
2023-04-03T18:09:53.680Z,6.88
2023-04-03T18:12:21.467Z,6.76
2023-04-03T18:14:49.684Z,6.71
2023-04-03T18:17:17.187Z,6.69
2023-04-03T18:19:45.676Z,6.71
2023-04-03T18:22:17.526Z,6.66
2023-04-03T18:24:45.119Z,6.50
2023-04-03T18:27:15.569Z,6.50
2023-04-03T18:29:46.922Z,6.42
2023-04-03T18:32:16.899Z,6.23
2023-04-03T18:34:44.284Z,6.14
2023-04-03T18:37:11.789Z,6.07
2023-04-03T18:39:39.474Z,6.06
2023-04-03T18:42:15.173Z,6.03
2023-04-03T18:44:45.165Z,6.03
2023-04-03T18:47:13.129Z,6.02
2023-04-03T18:49:42.093Z,5.82
2023-04-03T18:52:11.403Z,5.75
2023-04-03T18:54:39.345Z,5.61
2023-04-03T18:57:08.060Z,5.62
2023-04-03T18:59:36.865Z,5.57
2023-04-03T19:02:20.944Z,5.57
2023-04-03T19:04:48.905Z,5.48
2023-04-03T19:07:16.372Z,5.32
2023-04-03T19:09:43.828Z,5.30
2023-04-03T19:14:40.845Z,5.25
2023-04-03T19:17:09.232Z,5.13
2023-04-03T19:19:36.632Z,5.19
2023-04-03T19:22:04.184Z,5.10
2023-04-03T19:24:31.689Z,5.03
2023-04-03T19:26:59.143Z,5.06
2023-04-03T19:29:26.570Z,4.95
2023-04-03T19:31:54.168Z,4.71
2023-04-03T19:34:21.774Z,4.55
2023-04-03T19:36:52.239Z,4.62
2023-04-03T19:39:19.682Z,4.57
2023-04-03T19:41:47.425Z,4.51
2023-04-03T19:44:14.777Z,4.53
2023-04-03T19:46:51.372Z,4.50
2023-04-03T19:49:19.772Z,4.43
2023-04-03T19:51:47.119Z,4.40
2023-04-03T19:54:14.543Z,4.23
2023-04-03T19:56:41.958Z,4.10
2023-04-03T19:59:11.990Z,4.04
2023-04-03T20:01:39.639Z,4.02
2023-04-03T20:04:08.212Z,4.04
2023-04-03T20:06:36.821Z,4.27
2023-04-03T20:09:04.440Z,4.37
2023-04-03T20:11:33.533Z,4.31
2023-04-03T20:14:01.337Z,4.40
2023-04-03T20:16:29.538Z,4.41
2023-04-03T20:18:57.530Z,4.38
2023-04-03T20:21:34.045Z,4.28
2023-04-03T20:24:03.994Z,4.29
2023-04-03T20:26:32.451Z,4.23
2023-04-03T20:29:03.415Z,4.26
2023-04-03T20:31:31.897Z,4.33
2023-04-03T20:33:59.365Z,4.18
2023-04-03T20:36:28.517Z,4.11
2023-04-03T20:38:56.234Z,4.07
2023-04-03T20:41:23.868Z,4.06
2023-04-03T20:43:51.697Z,4.05
2023-04-03T20:46:19.820Z,3.99
2023-04-03T20:48:48.151Z,3.87
2023-04-03T20:51:19.742Z,3.89
2023-04-03T20:53:48.243Z,3.73
2023-04-03T20:56:16.182Z,3.70
2023-04-03T20:58:43.920Z,3.57
2023-04-03T21:01:25.008Z,3.44
2023-04-03T21:04:00.999Z,3.59
2023-04-03T21:07:24.570Z,3.48
2023-04-03T21:10:47.614Z,3.42
2023-04-03T21:14:13.717Z,3.35
2023-04-03T21:16:41.046Z,3.25
2023-04-03T21:19:15.998Z,3.17
2023-04-03T21:21:46.100Z,3.14
2023-04-03T21:24:16.952Z,3.27
2023-04-03T21:26:44.723Z,3.21
2023-04-03T21:29:12.211Z,3.20
2023-04-03T21:31:48.088Z,3.13
2023-04-03T21:34:15.991Z,3.07
2023-04-03T21:36:44.694Z,3.08
2023-04-03T21:39:12.322Z,3.07
2023-04-03T21:41:39.712Z,3.02
2023-04-03T21:44:07.143Z,3.05
2023-04-03T21:46:34.615Z,2.94
2023-04-03T21:49:01.944Z,2.96
2023-04-03T21:51:29.010Z,3.01
2023-04-03T21:53:56.559Z,2.91
2023-04-03T21:56:26.967Z,2.95
2023-04-03T21:58:54.498Z,2.63
2023-04-03T22:01:22.481Z,2.52
2023-04-03T22:03:49.874Z,2.53
2023-04-03T22:06:17.586Z,2.45
2023-04-03T22:08:45.478Z,2.44
2023-04-03T22:11:16.587Z,2.48
2023-04-03T22:13:44.522Z,2.45
2023-04-03T22:16:12.931Z,2.32
2023-04-03T22:18:40.364Z,2.27
2023-04-03T22:21:08.680Z,2.18
2023-04-03T22:23:36.505Z,2.23
2023-04-03T22:26:11.898Z,2.06
2023-04-03T22:28:42.670Z,1.96
2023-04-03T22:31:14.312Z,2.08
2023-04-03T22:33:43.339Z,2.25
2023-04-03T22:36:12.286Z,2.17
2023-04-03T22:38:43.485Z,2.06
2023-04-03T22:41:11.866Z,2.05
2023-04-03T22:43:39.985Z,1.99
2023-04-03T22:46:09.158Z,2.04
2023-04-03T22:48:37.351Z,1.40
2023-04-03T22:51:08.717Z,1.27
2023-04-03T22:53:36.573Z,1.33
2023-04-03T22:56:11.089Z,1.17
2023-04-03T22:58:39.090Z,1.03
2023-04-03T23:01:10.641Z,0.94
2023-04-03T23:03:39.415Z,0.91
2023-04-03T23:06:07.379Z,0.84
2023-04-03T23:08:38.055Z,0.86
2023-04-03T23:11:07.282Z,0.76
2023-04-03T23:13:35.119Z,0.88
2023-04-03T23:16:03.419Z,0.88
2023-04-03T23:18:32.799Z,0.66
2023-04-03T23:21:01.411Z,0.75
2023-04-03T23:23:28.974Z,0.67
2023-04-03T23:26:01.783Z,0.57
2023-04-03T23:28:30.053Z,0.55
2023-04-03T23:31:07.283Z,0.25
2023-04-03T23:33:34.611Z,0.51
2023-04-03T23:36:08.088Z,0.21
2023-04-03T23:38:36.096Z,0.39
2023-04-03T23:41:03.451Z,0.35
2023-04-03T23:43:32.106Z,0.29
2023-04-03T23:45:59.699Z,0.40
2023-04-03T23:48:27.087Z,0.35
2023-04-03T23:50:54.438Z,0.47
2023-04-03T23:53:21.847Z,0.64
2023-04-03T23:55:49.223Z,0.50
2023-04-03T23:58:16.588Z,0.59
